Time;durP1;ratioP1;P1;durP2;ratioP2;P2;SDS_P1;SDS_P2;PMS_P1;PMS_P2;Temp;Humidity;BMP_temperature;BMP_pressure;BME280_temperature;BME280_humidity;BME280_pressure;Samples;Min_cycle;Max_cycle;Signal;HPM_P1;HPM_P2
2021/12/17 00:00:24;;;;;;;13.57;8.87;;;;;;;2.87;89.80;95828.97;5102839;28;21224;-76
2021/12/17 00:05:52;;;;;;;14.80;10.33;;;;;;;2.96;89.05;95822.38;5101817;28;20205;-75
2021/12/17 00:08:22;;;;;;;14.73;9.20;;;;;;;2.95;88.73;95827.38;5100373;28;20220;-72
2021/12/17 00:10:50;;;;;;;11.53;8.50;;;;;;;3.04;88.55;95828.28;5102480;28;20200;-73
2021/12/17 00:13:18;;;;;;;13.43;9.17;;;;;;;2.92;88.36;95834.88;5101582;28;20193;-73
2021/12/17 00:15:46;;;;;;;14.00;9.30;;;;;;;2.92;88.34;95834.88;5101272;28;20205;-74
2021/12/17 00:18:19;;;;;;;11.07;8.30;;;;;;;2.89;88.97;95834.84;5103737;27;20242;-74
2021/12/17 00:40:30;;;;;;;13.27;8.47;;;;;;;2.84;89.25;95832.31;5102678;28;20289;-76
2021/12/17 00:48:36;;;;;;;12.90;7.93;;;;;;;2.97;88.70;95825.72;5101688;28;20267;-75
2021/12/17 00:53:51;;;;;;;12.17;8.43;;;;;;;3.06;87.40;95819.09;5102243;28;20212;-74
2021/12/17 00:56:20;;;;;;;10.63;8.10;;;;;;;3.04;87.17;95825.78;5101535;28;20197;-74
2021/12/17 00:58:47;;;;;;;9.37;7.83;;;;;;;3.04;86.88;95813.22;5102374;28;20196;-74
2021/12/17 01:01:15;;;;;;;9.80;7.33;;;;;;;3.02;86.85;95814.03;5102519;28;20616;-75
2021/12/17 01:03:42;;;;;;;9.93;7.50;;;;;;;3.12;86.33;95818.31;5101291;28;20193;-74
2021/12/17 01:06:09;;;;;;;7.37;6.67;;;;;;;2.92;86.25;95819.81;5101086;28;20189;-74
2021/12/17 01:08:36;;;;;;;14.13;8.03;;;;;;;2.82;86.67;95823.06;5102112;28;21245;-74
2021/12/17 01:11:06;;;;;;;9.80;8.40;;;;;;;2.89;87.23;95824.81;5101454;28;20235;-73
2021/12/17 01:13:36;;;;;;;9.90;7.37;;;;;;;2.86;87.41;95814.75;5101317;28;20282;-73
2021/12/17 01:16:03;;;;;;;10.43;7.67;;;;;;;3.01;85.95;95822.38;5100954;28;20339;-76
2021/12/17 01:18:43;;;;;;;8.00;7.17;;;;;;;3.02;86.26;95809.84;5101598;28;20289;-74
2021/12/17 01:21:26;;;;;;;10.77;7.87;;;;;;;3.08;85.71;95807.38;5100203;28;20258;-74
2021/12/17 01:43:25;;;;;;;5.77;5.13;;;;;;;3.27;82.22;95793.28;5099945;27;20201;-74
2021/12/17 01:45:53;;;;;;;6.10;5.50;;;;;;;3.22;82.35;95786.53;5100422;28;20912;-73
2021/12/17 01:48:26;;;;;;;6.60;5.37;;;;;;;3.15;81.91;95783.16;5100574;28;20298;-73
2021/12/17 01:56:38;;;;;;;5.60;4.90;;;;;;;3.37;79.91;95784.97;5100739;28;20211;-74
2021/12/17 01:59:22;;;;;;;4.37;3.97;;;;;;;3.24;80.66;95788.22;5101012;28;20201;-76
2021/12/17 02:01:52;;;;;;;5.00;4.50;;;;;;;3.14;80.71;95786.50;5100468;28;20758;-74
2021/12/17 02:04:19;;;;;;;5.20;4.70;;;;;;;3.26;79.97;95789.06;5099827;28;20254;-73
2021/12/17 02:06:45;;;;;;;5.07;4.63;;;;;;;3.12;80.17;95795.69;5100907;28;20274;-73
2021/12/17 02:09:41;;;;;;;6.83;5.03;;;;;;;3.10;80.18;95792.34;5100831;28;20239;-75
2021/12/17 02:12:27;;;;;;;5.03;4.53;;;;;;;3.04;80.43;95793.13;5100292;28;20659;-73
2021/12/17 02:20:59;;;;;;;4.50;4.20;;;;;;;3.14;80.53;95780.63;5100554;28;20195;-75
2021/12/17 02:29:16;;;;;;;5.03;4.53;;;;;;;3.21;80.03;95778.19;5100277;28;20242;-72
2021/12/17 02:31:43;;;;;;;4.77;4.37;;;;;;;3.36;79.26;95768.22;5100501;28;20277;-72
2021/12/17 02:34:24;;;;;;;4.27;3.87;;;;;;;3.42;78.89;95775.78;5099236;28;20202;-74
2021/12/17 02:36:53;;;;;;;4.63;4.20;;;;;;;3.37;79.15;95769.91;5100430;28;20325;-73
2021/12/17 02:39:44;;;;;;;4.37;3.97;;;;;;;3.33;79.93;95772.38;5098926;28;20201;-72
2021/12/17 02:42:40;;;;;;;4.87;4.27;;;;;;;3.47;79.63;95769.94;5099034;28;21236;-76
2021/12/17 02:48:01;;;;;;;6.47;5.17;;;;;;;3.44;79.29;95768.25;5100312;28;20208;-74
2021/12/17 02:50:28;;;;;;;4.63;4.23;;;;;;;3.50;79.54;95767.44;5100566;28;20605;-75
2021/12/17 02:52:58;;;;;;;5.07;3.77;;;;;;;3.28;79.67;95779.88;5100418;28;20270;-74
2021/12/17 02:55:25;;;;;;;6.07;5.00;;;;;;;3.30;79.96;95764.81;5099613;28;20971;-75
2021/12/17 02:57:52;;;;;;;5.03;4.63;;;;;;;3.35;80.59;95771.56;5100211;28;20297;-74
2021/12/17 03:00:19;;;;;;;5.67;5.07;;;;;;;3.40;80.31;95767.41;5101113;28;20277;-75
2021/12/17 03:02:48;;;;;;;6.17;5.37;;;;;;;3.46;80.37;95770.78;5100084;28;20196;-74
2021/12/17 03:05:15;;;;;;;5.80;5.17;;;;;;;3.64;79.39;95769.19;5100022;28;20217;-74
2021/12/17 03:07:47;;;;;;;5.57;4.80;;;;;;;3.67;79.81;95770.88;5100353;27;20189;-73
2021/12/17 03:10:16;;;;;;;6.07;5.47;;;;;;;3.52;80.74;95766.59;5100538;28;20290;-74
2021/12/17 03:12:45;;;;;;;7.17;5.97;;;;;;;3.53;81.08;95769.97;5099658;28;20322;-75
2021/12/17 03:15:21;;;;;;;5.97;5.30;;;;;;;3.60;80.60;95764.13;5099659;28;20268;-75
2021/12/17 03:23:32;;;;;;;7.50;6.23;;;;;;;3.63;82.00;95767.50;5100091;28;20227;-73
2021/12/17 03:26:02;;;;;;;8.90;6.67;;;;;;;3.55;82.91;95765.78;5103302;28;20655;-73
2021/12/17 03:28:29;;;;;;;7.87;6.80;;;;;;;3.64;84.13;95768.34;5103844;28;20618;-74
2021/12/17 03:30:56;;;;;;;7.83;6.90;;;;;;;3.51;86.23;95764.09;5103959;28;20270;-73
2021/12/17 03:33:23;;;;;;;9.60;8.07;;;;;;;3.45;87.29;95772.47;5103695;28;20193;-74
2021/12/17 03:35:51;;;;;;;7.90;7.00;;;;;;;3.48;87.70;95762.41;5103773;28;20201;-75
2021/12/17 03:38:19;;;;;;;8.57;6.80;;;;;;;3.57;88.23;95761.63;5103594;28;20229;-74
2021/12/17 03:40:47;;;;;;;9.57;7.03;;;;;;;3.65;87.76;95744.91;5103282;28;20197;-73
2021/12/17 03:43:22;;;;;;;11.60;7.63;;;;;;;3.47;88.35;95757.38;5103388;28;20211;-74
2021/12/17 03:45:49;;;;;;;9.33;7.43;;;;;;;3.38;89.37;95745.63;5103768;28;20201;-75
2021/12/17 03:48:16;;;;;;;9.33;7.27;;;;;;;3.55;89.06;95748.19;5103400;28;20675;-75
2021/12/17 03:50:43;;;;;;;6.90;6.20;;;;;;;3.50;89.01;95750.69;5103313;28;20204;-75
2021/12/17 03:53:10;;;;;;;10.63;6.67;;;;;;;3.35;89.51;95741.41;5103100;28;20201;-75
2021/12/17 03:55:37;;;;;;;7.27;6.57;;;;;;;3.35;89.77;95735.53;5103085;28;20294;-75
2021/12/17 03:58:04;;;;;;;7.67;6.77;;;;;;;3.34;89.84;95739.72;5103076;28;20224;-75
2021/12/17 04:00:34;;;;;;;9.53;6.80;;;;;;;3.32;90.24;95738.03;5103243;28;20324;-75
2021/12/17 04:03:01;;;;;;;7.17;6.47;;;;;;;3.36;90.27;95728.00;5103187;28;20229;-75
2021/12/17 04:05:28;;;;;;;6.70;6.10;;;;;;;3.42;90.48;95727.22;5103332;28;20667;-75
2021/12/17 04:07:56;;;;;;;8.57;6.80;;;;;;;3.37;90.81;95731.38;5103529;28;20607;-75
2021/12/17 04:10:25;;;;;;;7.07;6.37;;;;;;;3.42;90.95;95722.19;5103194;28;20209;-75
2021/12/17 04:12:56;;;;;;;8.90;6.33;;;;;;;3.56;89.67;95724.75;5102906;28;21179;-76
2021/12/17 04:15:33;;;;;;;7.50;6.80;;;;;;;3.46;90.27;95723.03;5103331;28;20189;-75
2021/12/17 04:18:04;;;;;;;8.77;6.27;;;;;;;3.52;89.83;95713.84;5103221;28;20224;-74
2021/12/17 04:20:31;;;;;;;6.83;6.13;;;;;;;3.37;90.71;95712.13;5102896;28;20292;-75
2021/12/17 04:22:58;;;;;;;7.97;6.53;;;;;;;3.53;90.76;95709.66;5102531;28;20265;-76
2021/12/17 04:25:25;;;;;;;6.57;5.37;;;;;;;3.34;91.69;95704.56;5103010;28;20227;-75
2021/12/17 04:27:52;;;;;;;7.07;5.57;;;;;;;3.36;92.19;95697.88;5102470;28;20660;-74
2021/12/17 04:30:19;;;;;;;7.43;5.93;;;;;;;3.27;92.80;95695.31;5102788;28;20205;-74
2021/12/17 04:32:46;;;;;;;6.93;5.60;;;;;;;3.46;92.09;95687.88;5102682;28;20205;-75
2021/12/17 04:35:15;;;;;;;6.40;5.70;;;;;;;3.55;91.73;95682.84;5101750;28;20678;-74
2021/12/17 04:37:42;;;;;;;6.90;6.20;;;;;;;3.63;91.38;95689.59;5102419;28;20228;-75
2021/12/17 04:40:10;;;;;;;7.80;6.47;;;;;;;3.61;91.72;95682.88;5102473;28;20269;-74
2021/12/17 04:42:44;;;;;;;6.10;5.30;;;;;;;3.59;91.95;95684.56;5102404;28;20193;-75
2021/12/17 04:45:11;;;;;;;6.10;5.37;;;;;;;3.51;92.30;95668.59;5102010;28;20281;-74
2021/12/17 04:58:37;;;;;;;8.30;6.37;;;;;;;3.46;91.48;95677.81;5101794;28;20271;-74
2021/12/17 05:01:10;;;;;;;6.20;5.60;;;;;;;3.38;92.56;95682.81;5102264;28;20371;-74
2021/12/17 05:03:37;;;;;;;41.23;20.63;;;;;;;3.30;92.73;95672.72;5102859;28;20835;-74
2021/12/17 05:06:05;;;;;;;16.27;10.33;;;;;;;3.49;92.73;95677.81;5102264;28;20605;-75
2021/12/17 05:08:32;;;;;;;14.60;9.97;;;;;;;3.40;93.28;95679.47;5101532;28;20296;-75
2021/12/17 05:11:26;;;;;;;7.10;6.43;;;;;;;3.49;92.60;95668.59;5101956;28;20197;-75
2021/12/17 05:19:43;;;;;;;6.87;5.93;;;;;;;3.58;92.21;95678.69;5103301;27;20313;-75
2021/12/17 05:22:12;;;;;;;7.13;5.00;;;;;;;3.54;92.69;95681.19;5101986;28;20192;-74
2021/12/17 05:24:39;;;;;;;19.70;11.60;;;;;;;3.56;92.50;95679.50;5101279;28;20655;-76
2021/12/17 05:27:06;;;;;;;13.87;10.20;;;;;;;3.51;92.94;95688.69;5101447;28;20674;-76
2021/12/17 05:29:33;;;;;;;8.67;6.70;;;;;;;3.52;93.19;95683.69;5101891;28;20278;-75
2021/12/17 05:32:00;;;;;;;10.90;8.20;;;;;;;3.55;92.59;95682.84;5101849;28;21666;-76
2021/12/17 05:34:26;;;;;;;10.13;7.37;;;;;;;3.60;92.46;95681.22;5101113;28;20216;-74
2021/12/17 05:36:53;;;;;;;10.93;7.13;;;;;;;3.61;92.47;95678.69;5101110;28;20197;-75
2021/12/17 05:39:22;;;;;;;6.67;6.00;;;;;;;3.68;92.48;95677.06;5101475;28;21266;-74
2021/12/17 05:41:49;;;;;;;6.23;5.63;;;;;;;3.63;92.61;95673.69;5101378;28;20287;-75
2021/12/17 05:44:17;;;;;;;6.40;5.80;;;;;;;3.58;93.40;95663.59;5101197;28;20216;-76
2021/12/17 05:46:49;;;;;;;5.63;5.13;;;;;;;3.66;93.03;95667.00;5100363;28;20201;-74
2021/12/17 05:49:17;;;;;;;6.30;5.10;;;;;;;3.66;92.55;95658.59;5101078;28;20319;-74
2021/12/17 05:51:44;;;;;;;7.03;5.30;;;;;;;3.63;93.39;95668.66;5101083;28;20197;-73
2021/12/17 05:54:10;;;;;;;18.00;11.30;;;;;;;3.68;93.19;95667.84;5100472;28;20258;-74
2021/12/17 05:56:39;;;;;;;28.23;15.20;;;;;;;3.61;93.53;95672.84;5101049;28;20193;-75
2021/12/17 05:59:08;;;;;;;7.30;6.60;;;;;;;3.74;93.00;95689.63;5100802;28;21405;-76
2021/12/17 06:01:36;;;;;;;8.67;6.60;;;;;;;3.66;93.43;95686.25;5101312;28;20208;-75
2021/12/17 06:04:05;;;;;;;7.00;6.30;;;;;;;3.39;94.53;95692.88;5100539;28;20204;-76
2021/12/17 06:06:34;;;;;;;6.53;5.73;;;;;;;3.24;94.67;95702.81;5100539;28;20655;-76
2021/12/17 06:09:07;;;;;;;7.33;6.53;;;;;;;3.63;94.10;95693.78;5100649;28;20257;-76
2021/12/17 06:11:35;;;;;;;8.33;7.47;;;;;;;3.64;93.27;95687.94;5100985;28;20224;-75
2021/12/17 06:14:03;;;;;;;14.73;7.37;;;;;;;3.61;93.00;95708.84;5100617;28;20197;-75
2021/12/17 06:16:33;;;;;;;11.50;7.80;;;;;;;3.60;93.13;95699.63;5100323;28;20589;-75
2021/12/17 06:19:00;;;;;;;7.87;6.73;;;;;;;3.37;94.37;95714.63;5099177;28;20579;-75
2021/12/17 06:21:27;;;;;;;9.93;7.10;;;;;;;3.45;94.77;95708.81;5100453;28;20211;-75
2021/12/17 06:23:54;;;;;;;9.37;6.93;;;;;;;3.39;94.09;95702.91;5100065;28;20225;-74
2021/12/17 06:26:21;;;;;;;7.50;6.07;;;;;;;3.37;94.03;95704.56;5100563;28;20207;-74
2021/12/17 06:28:50;;;;;;;9.93;6.27;;;;;;;3.40;94.56;95699.56;5100310;28;20258;-73
2021/12/17 06:31:18;;;;;;;9.03;6.03;;;;;;;3.41;94.93;95696.22;5100180;28;20585;-73
2021/12/17 06:33:45;;;;;;;6.83;5.43;;;;;;;3.37;94.62;95703.72;5099951;28;20253;-73
2021/12/17 06:36:12;;;;;;;6.23;5.73;;;;;;;3.45;94.75;95698.75;5100333;28;20209;-74
2021/12/17 06:38:39;;;;;;;7.10;6.40;;;;;;;3.51;94.43;95698.75;5100473;28;20355;-74
2021/12/17 06:41:06;;;;;;;8.35;5.32;;;;;;;3.67;93.81;95698.00;5100176;28;20201;-74
2021/12/17 06:43:38;;;;;;;6.15;5.53;;;;;;;3.65;93.33;95697.16;5100165;28;20290;-73
2021/12/17 06:46:17;;;;;;;6.23;5.07;;;;;;;3.65;92.85;95682.91;5100286;28;20201;-73
2021/12/17 06:48:47;;;;;;;6.33;5.00;;;;;;;3.60;93.08;95691.25;5100121;28;20315;-74
2021/12/17 06:59:45;;;;;;;5.10;4.60;;;;;;;3.75;91.96;95696.31;5103788;28;20266;-75
2021/12/17 07:10:36;;;;;;;6.18;5.25;;;;;;;3.68;92.20;95685.44;5104375;28;20253;-74
2021/12/17 07:21:38;;;;;;;4.67;4.27;;;;;;;3.64;94.92;95697.97;5064123;28;20311;-73
2021/12/17 07:32:45;;;;;;;8.93;6.80;;;;;;;3.48;95.79;95682.00;5103777;28;20196;-74
2021/12/17 07:35:41;;;;;;;6.97;6.20;;;;;;;3.62;96.12;95675.34;5103352;28;20216;-73
2021/12/17 07:40:55;;;;;;;7.27;6.40;;;;;;;3.65;96.05;95682.06;5103344;28;20199;-74
2021/12/17 07:43:36;;;;;;;8.70;5.60;;;;;;;3.59;96.76;95674.50;5103129;28;20577;-74
2021/12/17 07:46:05;;;;;;;13.17;6.37;;;;;;;3.65;96.60;95675.38;5103751;28;20619;-74
2021/12/17 07:48:33;;;;;;;7.57;5.97;;;;;;;3.67;96.05;95681.25;5103885;28;20263;-75
2021/12/17 07:51:02;;;;;;;7.43;6.70;;;;;;;3.69;96.03;95687.13;5103311;28;20208;-76
2021/12/17 07:53:31;;;;;;;7.10;6.40;;;;;;;3.65;96.28;95682.06;5103892;28;20229;-73
2021/12/17 07:56:00;;;;;;;7.13;6.47;;;;;;;3.71;96.66;95669.53;5103507;28;20290;-74
2021/12/17 07:58:27;;;;;;;8.43;6.27;;;;;;;3.81;96.24;95673.72;5103567;27;20723;-74
2021/12/17 08:00:54;;;;;;;6.20;5.63;;;;;;;3.77;96.23;95684.59;5103193;28;20712;-74
2021/12/17 08:03:21;;;;;;;7.57;6.87;;;;;;;3.80;96.84;95684.59;5103120;28;20205;-75
2021/12/17 08:05:48;;;;;;;7.13;6.50;;;;;;;3.91;96.36;95687.16;5103619;28;20204;-74
2021/12/17 08:08:15;;;;;;;12.20;7.80;;;;;;;4.01;95.19;95684.66;5103408;28;20278;-75
2021/12/17 08:10:43;;;;;;;8.70;7.90;;;;;;;4.00;95.25;95688.00;5103051;28;20208;-74
2021/12/17 08:13:17;;;;;;;11.27;7.80;;;;;;;4.02;95.54;95691.34;5103352;28;20216;-73
2021/12/17 08:15:50;;;;;;;10.18;8.20;;;;;;;3.98;94.96;95692.19;5102550;28;20211;-73
2021/12/17 08:26:41;;;;;;;9.67;8.67;;;;;;;3.80;96.35;95684.59;5102106;28;20195;-73
2021/12/17 08:31:56;;;;;;;10.53;9.47;;;;;;;3.98;96.76;95679.59;5098510;27;20216;-73
2021/12/17 08:34:23;;;;;;;10.07;7.87;;;;;;;4.17;95.19;95680.50;5102617;28;20200;-72
2021/12/17 08:36:51;;;;;;;11.60;9.47;;;;;;;4.13;94.36;95667.91;5102225;28;20197;-74
2021/12/17 08:39:21;;;;;;;12.97;8.30;;;;;;;4.16;94.51;95667.91;5102550;28;20232;-75
2021/12/17 08:41:52;;;;;;;8.57;7.47;;;;;;;4.16;94.16;95667.91;5102834;28;20201;-75
2021/12/17 08:44:19;;;;;;;8.47;7.23;;;;;;;4.36;93.70;95661.22;5103123;28;21336;-75
2021/12/17 08:46:46;;;;;;;8.43;6.87;;;;;;;4.16;93.18;95632.69;5102875;28;20604;-75
2021/12/17 08:49:13;;;;;;;7.13;6.43;;;;;;;4.39;92.87;95654.50;5104251;27;21793;-74
2021/12/17 08:51:41;;;;;;;13.37;7.87;;;;;;;4.45;92.65;95651.16;5102229;28;20289;-77
2021/12/17 08:54:08;;;;;;;6.73;6.13;;;;;;;4.45;93.02;95651.16;5102975;28;20289;-75
2021/12/17 08:56:42;;;;;;;7.40;6.70;;;;;;;4.49;92.27;95642.72;5103127;28;20217;-75
2021/12/17 08:59:13;;;;;;;6.97;6.23;;;;;;;4.51;91.76;95643.56;5102481;28;20227;-74
2021/12/17 09:01:40;;;;;;;6.87;6.27;;;;;;;4.42;92.13;95644.44;5098673;28;20242;-74
2021/12/17 09:04:07;;;;;;;6.73;6.23;;;;;;;4.41;92.38;95649.47;5102312;28;21015;-74
2021/12/17 09:06:34;;;;;;;8.50;7.60;;;;;;;4.38;92.59;95639.41;5104232;28;20200;-74
2021/12/17 09:09:01;;;;;;;8.50;7.50;;;;;;;4.32;92.61;95634.38;5102879;28;20651;-73
2021/12/17 09:11:29;;;;;;;9.70;7.77;;;;;;;4.30;93.47;95625.97;5103603;28;20208;-73
2021/12/17 09:13:58;;;;;;;8.53;7.50;;;;;;;4.35;92.81;95619.28;5104203;28;20256;-73
2021/12/17 09:16:27;;;;;;;8.30;7.50;;;;;;;4.44;93.15;95629.34;5103874;28;20205;-73
2021/12/17 09:18:55;;;;;;;7.60;6.77;;;;;;;4.37;93.22;95617.59;5102577;28;20290;-73
2021/12/17 09:21:23;;;;;;;8.20;7.40;;;;;;;4.38;93.45;95615.06;5099554;28;20643;-73
2021/12/17 09:23:50;;;;;;;9.40;6.40;;;;;;;4.41;93.55;95615.06;5102668;28;21066;-74
2021/12/17 09:26:18;;;;;;;7.93;7.13;;;;;;;4.43;93.18;95618.44;5099621;28;20250;-74
2021/12/17 09:28:45;;;;;;;7.30;6.70;;;;;;;4.54;92.31;95610.84;5102082;28;20224;-73
2021/12/17 09:31:12;;;;;;;7.00;6.40;;;;;;;4.63;92.07;95615.88;5101858;28;20661;-73
2021/12/17 09:33:42;;;;;;;7.53;6.70;;;;;;;4.55;92.68;95621.75;5103282;28;20233;-75
2021/12/17 09:36:09;;;;;;;8.30;5.83;;;;;;;4.47;93.49;95609.16;5103408;28;20258;-74
2021/12/17 09:38:36;;;;;;;7.57;6.83;;;;;;;4.57;92.98;95608.34;5102943;28;20281;-74
2021/12/17 09:41:04;;;;;;;7.27;6.57;;;;;;;4.53;92.68;95601.63;5103345;28;20197;-74
2021/12/17 09:43:32;;;;;;;6.80;6.03;;;;;;;4.43;93.13;95588.22;5103642;28;20208;-73
2021/12/17 09:46:01;;;;;;;6.47;5.87;;;;;;;4.52;93.07;95589.88;5102506;28;20199;-75
2021/12/17 09:48:28;;;;;;;6.33;5.83;;;;;;;4.70;92.67;95581.47;5102276;28;20236;-72
2021/12/17 09:50:56;;;;;;;7.00;6.30;;;;;;;4.69;92.54;95575.59;5101395;28;20193;-73
2021/12/17 09:53:23;;;;;;;6.60;6.00;;;;;;;4.88;91.90;95570.50;5102626;28;20753;-73
2021/12/17 09:55:51;;;;;;;6.43;5.83;;;;;;;4.91;91.39;95573.00;5101714;28;20193;-73
2021/12/17 09:58:19;;;;;;;6.40;5.80;;;;;;;5.10;91.19;95572.91;5101964;28;20204;-73
2021/12/17 10:00:45;;;;;;;6.53;5.83;;;;;;;5.06;91.17;95555.31;5102442;28;20235;-74
2021/12/17 10:03:12;;;;;;;7.17;6.57;;;;;;;4.99;90.57;95566.22;5102130;28;20205;-72
2021/12/17 10:05:41;;;;;;;7.13;6.47;;;;;;;5.07;91.05;95562.00;5101732;28;20254;-74
2021/12/17 10:08:13;;;;;;;6.95;6.22;;;;;;;4.93;91.57;95544.44;5101763;28;20209;-75
2021/12/17 10:10:41;;;;;;;8.80;7.22;;;;;;;4.98;91.02;95547.75;5101067;28;20204;-74
2021/12/17 10:13:11;;;;;;;8.68;7.78;;;;;;;4.89;90.95;95532.72;5110728;28;20652;-75
2021/12/17 10:15:39;;;;;;;7.60;6.97;;;;;;;4.86;91.56;95532.72;5110896;28;20199;-75
2021/12/17 10:18:06;;;;;;;10.35;8.07;;;;;;;5.04;91.17;95531.78;5110711;28;20724;-74
2021/12/17 10:20:37;;;;;;;9.03;7.37;;;;;;;4.96;90.99;95523.44;5110449;28;20694;-75
2021/12/17 10:23:06;;;;;;;9.73;8.73;;;;;;;4.87;91.77;95523.47;5109927;28;20197;-75
2021/12/17 10:25:36;;;;;;;10.77;9.67;;;;;;;4.87;91.41;95516.78;5110085;28;20209;-73
2021/12/17 10:28:06;;;;;;;11.37;8.53;;;;;;;4.81;91.07;95511.75;5110273;28;20199;-75
2021/12/17 10:30:34;;;;;;;6.30;5.80;;;;;;;4.70;92.08;95514.28;5109726;28;20246;-74
2021/12/17 10:33:03;;;;;;;6.00;5.50;;;;;;;4.88;90.45;95505.84;5109474;28;20189;-74
2021/12/17 10:35:32;;;;;;;6.60;5.95;;;;;;;4.73;91.02;95494.16;5110479;28;20197;-75
2021/12/17 10:38:03;;;;;;;5.77;5.27;;;;;;;4.83;90.61;95499.16;5109475;28;20197;-73
2021/12/17 10:40:32;;;;;;;6.68;6.07;;;;;;;4.85;91.50;95482.38;5108425;28;20228;-74
2021/12/17 10:43:07;;;;;;;5.97;5.50;;;;;;;4.87;91.20;95468.94;5109186;28;20193;-75
2021/12/17 10:45:38;;;;;;;7.07;6.40;;;;;;;4.98;91.32;95462.13;5109942;28;20245;-72
2021/12/17 10:48:27;;;;;;;6.35;5.75;;;;;;;4.89;90.75;95454.66;5111201;27;20193;-73
2021/12/17 10:51:01;;;;;;;7.15;6.53;;;;;;;5.04;90.72;95463.78;5111385;28;20192;-76
2021/12/17 10:53:29;;;;;;;5.45;5.05;;;;;;;5.01;90.29;95461.28;5111260;28;20195;-75
2021/12/17 10:55:56;;;;;;;6.00;5.20;;;;;;;5.03;90.62;95464.63;5110585;28;20189;-75
2021/12/17 10:58:29;;;;;;;5.13;4.73;;;;;;;5.05;89.57;95452.88;5111797;28;20193;-74
2021/12/17 11:00:58;;;;;;;5.23;4.67;;;;;;;4.99;90.54;95478.91;5112343;28;20227;-75
2021/12/17 11:03:26;;;;;;;4.60;4.30;;;;;;;5.01;90.62;95482.25;5113552;28;20185;-74
2021/12/17 11:05:53;;;;;;;5.53;4.97;;;;;;;4.96;91.96;95475.56;5112677;28;20185;-74
2021/12/17 11:08:28;;;;;;;8.80;7.60;;;;;;;4.94;92.17;95470.56;5111611;28;20197;-75
2021/12/17 11:10:58;;;;;;;5.70;5.20;;;;;;;4.92;92.80;95469.75;5111292;27;20192;-74
2021/12/17 11:13:26;;;;;;;5.40;5.00;;;;;;;4.92;92.83;95472.25;5111193;28;20192;-75
2021/12/17 11:15:54;;;;;;;5.50;5.10;;;;;;;4.94;93.25;95463.03;5111371;28;20567;-75
2021/12/17 11:18:24;;;;;;;5.57;5.17;;;;;;;4.98;92.68;95457.09;5111380;28;20651;-77
2021/12/17 11:20:52;;;;;;;5.33;4.83;;;;;;;5.00;92.92;95455.41;5111157;28;20232;-72
2021/12/17 11:23:22;;;;;;;5.97;5.47;;;;;;;5.03;92.29;95447.84;5111408;28;20618;-74
2021/12/17 11:25:49;;;;;;;5.77;5.27;;;;;;;5.17;91.72;95442.72;5111049;28;20185;-73
2021/12/17 11:28:17;;;;;;;4.40;4.10;;;;;;;5.22;92.30;95425.03;5110935;28;20189;-76
2021/12/17 11:30:48;;;;;;;9.95;4.68;;;;;;;5.36;91.09;95434.19;5111250;28;20257;-75
2021/12/17 11:33:15;;;;;;;4.25;3.85;;;;;;;5.21;90.44;95433.44;5111544;28;20262;-77
2021/12/17 11:35:43;;;;;;;3.80;3.50;;;;;;;5.21;90.74;95438.47;5111781;28;20201;-75
2021/12/17 11:38:14;;;;;;;4.97;4.47;;;;;;;5.16;89.75;95425.94;5111660;28;20198;-76
2021/12/17 11:40:45;;;;;;;5.03;3.83;;;;;;;5.07;89.95;95421.78;5111771;28;20285;-76
2021/12/17 11:43:48;;;;;;;4.35;4.05;;;;;;;5.03;90.13;95420.13;5111307;28;20250;-74
2021/12/17 11:46:19;;;;;;;4.60;3.90;;;;;;;4.98;90.32;95416.78;5117271;28;20189;-74
2021/12/17 11:48:54;;;;;;;2.97;2.87;;;;;;;4.85;90.64;95414.38;5116051;28;20229;-73
2021/12/17 11:51:25;;;;;;;3.90;3.60;;;;;;;4.79;91.73;95413.56;5115025;28;20199;-76
2021/12/17 11:54:02;;;;;;;4.13;3.87;;;;;;;4.70;92.05;95420.34;5114977;28;20197;-75
2021/12/17 11:56:40;;;;;;;4.13;3.83;;;;;;;4.67;92.29;95408.59;5115433;28;20276;-73
2021/12/17 11:59:10;;;;;;;4.67;4.37;;;;;;;4.69;91.47;95409.44;5115163;28;20189;-75
2021/12/17 12:01:55;;;;;;;5.23;4.67;;;;;;;4.64;91.79;95410.31;5115142;28;20293;-74
2021/12/17 12:04:42;;;;;;;4.97;3.93;;;;;;;4.61;91.80;95396.03;5114517;27;20272;-75
2021/12/17 12:07:11;;;;;;;3.67;3.38;;;;;;;4.50;91.74;95400.28;5114440;28;20185;-75
2021/12/17 12:09:57;;;;;;;4.87;4.27;;;;;;;4.49;92.09;95406.16;5114340;28;20688;-73
2021/12/17 12:12:25;;;;;;;3.53;3.30;;;;;;;4.50;91.31;95397.75;5114778;28;20192;-73
2021/12/17 12:14:53;;;;;;;3.60;3.40;;;;;;;4.48;92.15;95399.44;5114062;28;20189;-72
2021/12/17 12:17:52;;;;;;;7.40;4.10;;;;;;;4.37;90.48;95391.13;5112633;28;20245;-74
2021/12/17 12:20:50;;;;;;;4.03;3.73;;;;;;;4.37;90.33;95373.53;5113884;28;20224;-75
2021/12/17 12:23:19;;;;;;;5.40;4.50;;;;;;;4.49;89.31;95375.13;5114264;28;20226;-73
2021/12/17 12:25:47;;;;;;;4.63;4.07;;;;;;;4.48;88.70;95368.41;5113779;28;20193;-74
2021/12/17 12:28:15;;;;;;;3.95;3.65;;;;;;;4.44;88.96;95363.44;5114026;28;20218;-75
2021/12/17 12:30:53;;;;;;;6.17;5.63;;;;;;;4.42;88.48;95354.22;5114285;28;20309;-78
2021/12/17 12:33:21;;;;;;;4.17;3.77;;;;;;;4.43;88.04;95345.81;5113989;28;20184;-74
2021/12/17 12:35:58;;;;;;;3.57;3.27;;;;;;;4.38;87.06;95353.38;5113564;28;20689;-73
2021/12/17 12:38:32;;;;;;;4.23;3.93;;;;;;;4.41;86.05;95345.00;5112353;28;20193;-73
2021/12/17 12:41:01;;;;;;;3.90;3.67;;;;;;;4.48;85.98;95339.06;5112469;28;20329;-73
2021/12/17 12:43:30;;;;;;;3.70;3.40;;;;;;;4.46;84.26;95343.25;5112688;28;20197;-78
2021/12/17 12:45:57;;;;;;;3.07;2.40;;;;;;;4.37;84.43;95333.25;5113339;28;20185;-75
2021/12/17 12:48:33;;;;;;;3.37;3.10;;;;;;;4.37;84.87;95335.78;5113505;28;20189;-74
2021/12/17 12:51:20;;;;;;;2.60;2.40;;;;;;;4.33;83.97;95334.13;5113293;28;20750;-75
2021/12/17 12:53:48;;;;;;;2.25;2.15;;;;;;;4.31;83.78;95326.56;5114170;28;20245;-76
2021/12/17 12:56:20;;;;;;;2.70;2.47;;;;;;;4.31;83.68;95325.75;5113310;28;20192;-75
2021/12/17 12:58:51;;;;;;;2.30;2.20;;;;;;;4.32;83.53;95322.38;5113544;28;20189;-77
2021/12/17 13:01:20;;;;;;;2.90;2.50;;;;;;;4.36;83.15;95327.41;5113322;28;20296;-73
2021/12/17 13:03:47;;;;;;;2.50;2.40;;;;;;;4.28;82.81;95325.75;5113875;28;20258;-74
2021/12/17 13:06:18;;;;;;;2.20;2.00;;;;;;;4.36;82.76;95319.00;5113468;28;20222;-73
2021/12/17 13:08:53;;;;;;;2.40;2.30;;;;;;;4.31;82.80;95340.84;5113609;28;20189;-74
2021/12/17 13:11:21;;;;;;;2.03;1.83;;;;;;;4.30;82.86;95344.19;5112963;28;20687;-74
2021/12/17 13:13:53;;;;;;;2.33;2.20;;;;;;;4.36;83.12;95332.44;5113074;28;20277;-75
2021/12/17 13:16:24;;;;;;;2.30;2.10;;;;;;;4.41;82.86;95337.44;5113389;28;20243;-74
2021/12/17 13:21:47;;;;;;;2.80;2.60;;;;;;;4.48;82.00;95334.03;5113213;28;20301;-76
2021/12/17 13:24:16;;;;;;;2.17;2.07;;;;;;;4.50;81.97;95336.53;5112793;28;20208;-74
2021/12/17 13:26:46;;;;;;;2.27;2.17;;;;;;;4.45;81.36;95339.09;5112807;28;20192;-76
2021/12/17 13:29:15;;;;;;;2.50;2.30;;;;;;;4.43;80.63;95334.06;5113430;28;20708;-75
2021/12/17 13:31:53;;;;;;;2.63;2.43;;;;;;;4.47;80.43;95332.34;5113257;28;20196;-77
2021/12/17 13:34:27;;;;;;;2.50;2.40;;;;;;;4.46;80.18;95350.81;5112882;28;20559;-74
2021/12/17 13:37:06;;;;;;;4.53;3.57;;;;;;;4.39;80.28;95351.72;5112871;28;20203;-74
2021/12/17 13:39:35;;;;;;;3.47;3.17;;;;;;;4.34;80.38;95344.19;5113005;28;20215;-73
2021/12/17 13:42:06;;;;;;;3.37;3.03;;;;;;;4.34;80.57;95340.81;5112559;28;20607;-77
2021/12/17 13:44:51;;;;;;;4.00;3.40;;;;;;;4.33;79.85;95356.75;5113243;28;20271;-75
2021/12/17 13:47:28;;;;;;;3.60;3.30;;;;;;;4.36;79.81;95344.16;5112286;28;20283;-74
2021/12/17 13:50:00;;;;;;;4.23;3.30;;;;;;;4.32;79.97;95338.31;5112542;28;20691;-73
2021/12/17 13:52:32;;;;;;;3.70;3.40;;;;;;;4.30;79.95;95351.75;5112538;28;20655;-72
2021/12/17 13:55:01;;;;;;;3.10;2.90;;;;;;;4.28;80.43;95350.91;5113060;28;20193;-78
2021/12/17 13:57:30;;;;;;;4.00;3.30;;;;;;;4.40;80.37;95349.19;5114282;28;20246;-74
2021/12/17 14:00:09;;;;;;;6.23;3.17;;;;;;;4.18;80.40;95339.22;5112002;28;20913;-73
2021/12/17 14:02:38;;;;;;;3.38;3.08;;;;;;;4.15;80.55;95327.50;5113041;28;20674;-75
2021/12/17 14:05:09;;;;;;;6.60;2.70;;;;;;;4.14;80.71;95330.03;5113767;27;20616;-75
2021/12/17 14:07:39;;;;;;;3.67;2.73;;;;;;;4.16;80.26;95328.34;5113167;27;20200;-73
2021/12/17 14:10:09;;;;;;;2.80;2.60;;;;;;;4.17;80.47;95327.50;5112821;28;20196;-75
2021/12/17 14:12:39;;;;;;;3.00;2.80;;;;;;;4.19;79.83;95334.19;5112740;28;20184;-73
2021/12/17 14:15:09;;;;;;;3.57;3.10;;;;;;;4.17;80.20;95332.53;5110686;28;20207;-73
2021/12/17 14:17:39;;;;;;;7.17;3.00;;;;;;;4.16;80.32;95356.00;5112755;28;20246;-76
2021/12/17 14:20:10;;;;;;;3.37;3.13;;;;;;;4.07;80.04;95347.66;5112327;28;20189;-75